sensor_id;sensor_type;location;lat;lon;timestamp;noise_LAeq;noise_LA_min;noise_LA_max;noise_LA01;noise_LA95
43512;Laerm;34054;52.100;5.116;2023-07-20T00:00:09;30.75;28.33;32.93;;
43512;Laerm;34054;52.100;5.116;2023-07-20T00:00:44;30.67;28.20;32.88;;
43512;Laerm;34054;52.100;5.116;2023-07-20T00:01:15;31.20;28.41;34.45;;
43512;Laerm;34054;52.100;5.116;2023-07-20T00:01:47;31.87;29.46;34.46;;
43512;Laerm;34054;52.100;5.116;2023-07-20T00:02:18;30.99;28.81;32.77;;
43512;Laerm;34054;52.100;5.116;2023-07-20T00:02:51;30.76;28.32;32.62;;
43512;Laerm;34054;52.100;5.116;2023-07-20T00:03:22;30.83;28.16;32.76;;
43512;Laerm;34054;52.100;5.116;2023-07-20T00:03:55;30.71;28.33;32.80;;
43512;Laerm;34054;52.100;5.116;2023-07-20T00:04:27;30.78;28.23;32.94;;
43512;Laerm;34054;52.100;5.116;2023-07-20T00:04:59;30.75;28.34;32.89;;
43512;Laerm;34054;52.100;5.116;2023-07-20T00:05:30;30.81;28.27;32.74;;
43512;Laerm;34054;52.100;5.116;2023-07-20T00:06:01;30.93;28.46;33.12;;
43512;Laerm;34054;52.100;5.116;2023-07-20T00:06:35;30.70;28.06;32.83;;
43512;Laerm;34054;52.100;5.116;2023-07-20T00:07:06;30.79;28.12;32.98;;
43512;Laerm;34054;52.100;5.116;2023-07-20T00:07:37;30.83;28.39;32.71;;
43512;Laerm;34054;52.100;5.116;2023-07-20T00:08:09;30.75;28.39;32.59;;
43512;Laerm;34054;52.100;5.116;2023-07-20T00:08:40;30.79;28.15;32.72;;
43512;Laerm;34054;52.100;5.116;2023-07-20T00:09:13;30.75;28.26;33.00;;
43512;Laerm;34054;52.100;5.116;2023-07-20T00:09:45;31.07;28.21;34.85;;
43512;Laerm;34054;52.100;5.116;2023-07-20T00:10:16;30.79;28.26;32.73;;
43512;Laerm;34054;52.100;5.116;2023-07-20T00:10:48;30.77;28.29;33.62;;
43512;Laerm;34054;52.100;5.116;2023-07-20T00:11:19;31.19;28.42;33.58;;
43512;Laerm;34054;52.100;5.116;2023-07-20T00:11:52;31.04;28.60;32.78;;
43512;Laerm;34054;52.100;5.116;2023-07-20T00:12:23;30.72;28.30;32.78;;
43512;Laerm;34054;52.100;5.116;2023-07-20T00:12:55;30.74;28.19;32.73;;
43512;Laerm;34054;52.100;5.116;2023-07-20T00:13:27;30.82;28.29;32.76;;
43512;Laerm;34054;52.100;5.116;2023-07-20T00:13:58;30.74;28.33;32.76;;
43512;Laerm;34054;52.100;5.116;2023-07-20T00:14:30;30.78;28.05;32.93;;
43512;Laerm;34054;52.100;5.116;2023-07-20T00:15:03;30.74;28.22;33.05;;
43512;Laerm;34054;52.100;5.116;2023-07-20T00:15:35;30.76;28.28;32.78;;
43512;Laerm;34054;52.100;5.116;2023-07-20T00:16:06;30.89;28.38;33.11;;
43512;Laerm;34054;52.100;5.116;2023-07-20T00:16:37;30.94;28.58;32.99;;
43512;Laerm;34054;52.100;5.116;2023-07-20T00:17:10;30.76;27.90;34.82;;
43512;Laerm;34054;52.100;5.116;2023-07-20T00:17:41;30.81;28.18;33.03;;
43512;Laerm;34054;52.100;5.116;2023-07-20T00:18:12;30.80;28.34;32.89;;
43512;Laerm;34054;52.100;5.116;2023-07-20T00:18:44;30.84;28.09;32.95;;
43512;Laerm;34054;52.100;5.116;2023-07-20T00:19:16;30.80;28.32;32.84;;
43512;Laerm;34054;52.100;5.116;2023-07-20T00:19:47;30.80;28.25;32.94;;
43512;Laerm;34054;52.100;5.116;2023-07-20T00:20:19;30.79;28.35;32.87;;
43512;Laerm;34054;52.100;5.116;2023-07-20T00:20:50;30.79;28.28;32.55;;
43512;Laerm;34054;52.100;5.116;2023-07-20T00:21:22;30.69;28.40;32.57;;
43512;Laerm;34054;52.100;5.116;2023-07-20T00:21:54;30.79;28.34;34.18;;
43512;Laerm;34054;52.100;5.116;2023-07-20T00:22:25;30.83;28.19;32.69;;
43512;Laerm;34054;52.100;5.116;2023-07-20T00:22:58;30.75;28.08;33.29;;
43512;Laerm;34054;52.100;5.116;2023-07-20T00:23:29;30.80;28.39;32.82;;
43512;Laerm;34054;52.100;5.116;2023-07-20T00:24:00;30.80;28.52;32.69;;
43512;Laerm;34054;52.100;5.116;2023-07-20T00:24:33;30.75;28.30;32.97;;
43512;Laerm;34054;52.100;5.116;2023-07-20T00:25:05;31.34;28.41;37.86;;
43512;Laerm;34054;52.100;5.116;2023-07-20T00:25:37;31.02;28.50;32.84;;
43512;Laerm;34054;52.100;5.116;2023-07-20T00:26:08;30.80;28.26;32.87;;
43512;Laerm;34054;52.100;5.116;2023-07-20T00:26:39;30.80;28.21;33.35;;
43512;Laerm;34054;52.100;5.116;2023-07-20T00:27:11;30.72;28.00;32.97;;
43512;Laerm;34054;52.100;5.116;2023-07-20T00:27:43;30.75;28.23;32.69;;
43512;Laerm;34054;52.100;5.116;2023-07-20T00:28:14;30.78;28.22;32.66;;
43512;Laerm;34054;52.100;5.116;2023-07-20T00:28:45;31.33;28.42;36.44;;
43512;Laerm;34054;52.100;5.116;2023-07-20T00:29:17;30.71;28.19;32.84;;
43512;Laerm;34054;52.100;5.116;2023-07-20T00:29:49;30.76;28.14;32.74;;
43512;Laerm;34054;52.100;5.116;2023-07-20T00:30:20;30.76;28.31;33.07;;
43512;Laerm;34054;52.100;5.116;2023-07-20T00:30:52;30.74;28.31;32.92;;
43512;Laerm;34054;52.100;5.116;2023-07-20T00:31:23;30.79;27.77;32.91;;
43512;Laerm;34054;52.100;5.116;2023-07-20T00:31:55;30.81;28.17;32.91;;
43512;Laerm;34054;52.100;5.116;2023-07-20T00:32:27;30.79;28.19;32.73;;
43512;Laerm;34054;52.100;5.116;2023-07-20T00:32:59;30.73;28.37;32.78;;
43512;Laerm;34054;52.100;5.116;2023-07-20T00:33:30;31.10;28.25;35.56;;
43512;Laerm;34054;52.100;5.116;2023-07-20T00:34:01;30.91;28.09;34.89;;
43512;Laerm;34054;52.100;5.116;2023-07-20T00:34:33;30.80;28.43;33.01;;
43512;Laerm;34054;52.100;5.116;2023-07-20T00:35:05;30.73;28.36;32.69;;
43512;Laerm;34054;52.100;5.116;2023-07-20T00:35:37;30.77;28.29;32.86;;
43512;Laerm;34054;52.100;5.116;2023-07-20T00:36:08;30.74;28.11;32.70;;
43512;Laerm;34054;52.100;5.116;2023-07-20T00:36:40;30.80;28.18;32.98;;
43512;Laerm;34054;52.100;5.116;2023-07-20T00:37:12;31.14;28.03;37.81;;
43512;Laerm;34054;52.100;5.116;2023-07-20T00:37:44;30.78;28.30;32.78;;
43512;Laerm;34054;52.100;5.116;2023-07-20T00:38:15;30.74;28.15;32.51;;
43512;Laerm;34054;52.100;5.116;2023-07-20T00:38:47;30.73;28.31;32.65;;
43512;Laerm;34054;52.100;5.116;2023-07-20T00:39:18;30.78;28.31;32.78;;
43512;Laerm;34054;52.100;5.116;2023-07-20T00:39:52;30.73;28.16;32.78;;
43512;Laerm;34054;52.100;5.116;2023-07-20T00:40:24;30.71;28.19;33.09;;
43512;Laerm;34054;52.100;5.116;2023-07-20T00:40:57;30.70;28.17;32.71;;
43512;Laerm;34054;52.100;5.116;2023-07-20T00:41:28;30.78;28.41;32.63;;
43512;Laerm;34054;52.100;5.116;2023-07-20T00:42:00;30.83;28.27;33.14;;
43512;Laerm;34054;52.100;5.116;2023-07-20T00:42:32;30.71;28.06;32.89;;
43512;Laerm;34054;52.100;5.116;2023-07-20T00:43:03;30.80;28.16;37.03;;
43512;Laerm;34054;52.100;5.116;2023-07-20T00:43:35;30.82;28.25;32.70;;
43512;Laerm;34054;52.100;5.116;2023-07-20T00:44:06;30.84;28.18;32.83;;
43512;Laerm;34054;52.100;5.116;2023-07-20T00:44:38;30.79;28.27;33.65;;
43512;Laerm;34054;52.100;5.116;2023-07-20T00:45:10;30.81;27.88;34.08;;
43512;Laerm;34054;52.100;5.116;2023-07-20T00:45:41;30.79;28.20;32.91;;
43512;Laerm;34054;52.100;5.116;2023-07-20T00:46:13;30.72;28.27;33.06;;
43512;Laerm;34054;52.100;5.116;2023-07-20T00:46:45;30.83;28.31;32.74;;
43512;Laerm;34054;52.100;5.116;2023-07-20T00:47:17;30.70;28.22;32.73;;
43512;Laerm;34054;52.100;5.116;2023-07-20T00:47:48;30.84;28.47;32.70;;
43512;Laerm;34054;52.100;5.116;2023-07-20T00:48:20;30.93;28.53;34.60;;
43512;Laerm;34054;52.100;5.116;2023-07-20T00:48:52;30.92;28.09;34.60;;
43512;Laerm;34054;52.100;5.116;2023-07-20T00:49:24;30.74;28.32;33.01;;
43512;Laerm;34054;52.100;5.116;2023-07-20T00:49:55;30.84;28.19;32.75;;
43512;Laerm;34054;52.100;5.116;2023-07-20T00:50:28;30.75;28.12;33.04;;
43512;Laerm;34054;52.100;5.116;2023-07-20T00:51:01;30.68;28.10;32.69;;
43512;Laerm;34054;52.100;5.116;2023-07-20T00:51:33;30.75;28.40;32.86;;
43512;Laerm;34054;52.100;5.116;2023-07-20T00:52:06;30.67;28.18;32.79;;
43512;Laerm;34054;52.100;5.116;2023-07-20T00:52:39;30.68;28.41;32.75;;
43512;Laerm;34054;52.100;5.116;2023-07-20T00:53:11;30.73;28.22;32.62;;
43512;Laerm;34054;52.100;5.116;2023-07-20T00:53:42;30.73;28.20;32.76;;
43512;Laerm;34054;52.100;5.116;2023-07-20T00:54:14;30.71;28.26;32.77;;
43512;Laerm;34054;52.100;5.116;2023-07-20T00:54:46;30.68;28.21;32.78;;
43512;Laerm;34054;52.100;5.116;2023-07-20T00:55:20;30.65;28.24;32.65;;
43512;Laerm;34054;52.100;5.116;2023-07-20T00:55:52;30.77;28.39;32.49;;
43512;Laerm;34054;52.100;5.116;2023-07-20T00:56:23;30.73;28.28;32.53;;
43512;Laerm;34054;52.100;5.116;2023-07-20T00:56:54;30.73;28.03;32.75;;
43512;Laerm;34054;52.100;5.116;2023-07-20T00:57:27;30.69;28.13;32.51;;
43512;Laerm;34054;52.100;5.116;2023-07-20T00:57:59;30.75;28.25;32.73;;
43512;Laerm;34054;52.100;5.116;2023-07-20T00:58:30;30.72;28.33;32.81;;
43512;Laerm;34054;52.100;5.116;2023-07-20T00:59:02;30.68;28.22;32.61;;
43512;Laerm;34054;52.100;5.116;2023-07-20T00:59:34;30.72;28.04;32.61;;
43512;Laerm;34054;52.100;5.116;2023-07-20T01:00:07;30.70;28.37;32.68;;
43512;Laerm;34054;52.100;5.116;2023-07-20T01:00:38;30.71;28.39;32.67;;
43512;Laerm;34054;52.100;5.116;2023-07-20T01:01:10;30.69;28.13;32.72;;
43512;Laerm;34054;52.100;5.116;2023-07-20T01:01:41;30.72;28.38;32.86;;
43512;Laerm;34054;52.100;5.116;2023-07-20T01:02:13;30.72;28.39;32.66;;
43512;Laerm;34054;52.100;5.116;2023-07-20T01:02:44;30.72;28.26;32.62;;
43512;Laerm;34054;52.100;5.116;2023-07-20T01:03:17;30.66;28.09;32.68;;
43512;Laerm;34054;52.100;5.116;2023-07-20T01:03:49;30.73;28.10;32.97;;
43512;Laerm;34054;52.100;5.116;2023-07-20T01:04:20;30.74;28.27;32.77;;
43512;Laerm;34054;52.100;5.116;2023-07-20T01:04:52;30.71;28.28;32.91;;
43512;Laerm;34054;52.100;5.116;2023-07-20T01:05:30;30.57;27.97;32.69;;
43512;Laerm;34054;52.100;5.116;2023-07-20T01:06:13;30.51;28.11;32.71;;
43512;Laerm;34054;52.100;5.116;2023-07-20T01:06:53;30.53;28.40;33.14;;
43512;Laerm;34054;52.100;5.116;2023-07-20T01:07:31;30.49;28.37;32.97;;
43512;Laerm;34054;52.100;5.116;2023-07-20T01:08:08;30.54;28.22;32.74;;
43512;Laerm;34054;52.100;5.116;2023-07-20T01:08:47;30.47;27.88;32.88;;
43512;Laerm;34054;52.100;5.116;2023-07-20T01:09:28;30.39;28.27;32.96;;
43512;Laerm;34054;52.100;5.116;2023-07-20T01:10:06;30.51;28.21;32.72;;
43512;Laerm;34054;52.100;5.116;2023-07-20T01:10:48;30.44;28.02;32.65;;
43512;Laerm;34054;52.100;5.116;2023-07-20T01:11:28;30.43;28.18;32.68;;
43512;Laerm;34054;52.100;5.116;2023-07-20T01:12:05;30.49;28.19;32.81;;
43512;Laerm;34054;52.100;5.116;2023-07-20T01:12:41;30.53;28.19;32.70;;
43512;Laerm;34054;52.100;5.116;2023-07-20T01:13:14;30.67;28.22;32.57;;
43512;Laerm;34054;52.100;5.116;2023-07-20T01:13:46;30.69;28.30;32.73;;
43512;Laerm;34054;52.100;5.116;2023-07-20T01:14:18;30.74;28.28;32.72;;
43512;Laerm;34054;52.100;5.116;2023-07-20T01:14:50;30.72;27.93;32.58;;
43512;Laerm;34054;52.100;5.116;2023-07-20T01:15:22;30.73;28.31;32.56;;
43512;Laerm;34054;52.100;5.116;2023-07-20T01:15:56;30.69;28.18;32.65;;
43512;Laerm;34054;52.100;5.116;2023-07-20T01:16:29;30.75;28.22;32.86;;
43512;Laerm;34054;52.100;5.116;2023-07-20T01:17:00;30.74;28.27;32.55;;
43512;Laerm;34054;52.100;5.116;2023-07-20T01:17:31;30.82;28.28;32.90;;
43512;Laerm;34054;52.100;5.116;2023-07-20T01:18:04;30.73;28.28;32.84;;
43512;Laerm;34054;52.100;5.116;2023-07-20T01:18:35;30.73;28.39;32.71;;
43512;Laerm;34054;52.100;5.116;2023-07-20T01:19:06;30.76;28.26;32.71;;
43512;Laerm;34054;52.100;5.116;2023-07-20T01:19:37;30.75;28.42;32.80;;
43512;Laerm;34054;52.100;5.116;2023-07-20T01:20:14;30.61;28.13;32.70;;
43512;Laerm;34054;52.100;5.116;2023-07-20T01:20:46;30.66;28.21;32.86;;
43512;Laerm;34054;52.100;5.116;2023-07-20T01:21:22;30.83;28.13;34.05;;
43512;Laerm;34054;52.100;5.116;2023-07-20T01:21:59;30.72;28.33;33.06;;
43512;Laerm;34054;52.100;5.116;2023-07-20T01:24:15;30.23;28.27;32.76;;
43512;Laerm;34054;52.100;5.116;2023-07-20T01:25:07;30.01;28.16;32.82;;
43512;Laerm;34054;52.100;5.116;2023-07-20T01:25:58;30.13;28.02;32.81;;
43512;Laerm;34054;52.100;5.116;2023-07-20T01:26:46;30.32;28.20;32.86;;
43512;Laerm;34054;52.100;5.116;2023-07-20T01:27:42;30.17;28.05;33.12;;
43512;Laerm;34054;52.100;5.116;2023-07-20T01:28:40;30.11;28.06;32.85;;
43512;Laerm;34054;52.100;5.116;2023-07-20T01:29:24;31.50;27.85;38.15;;
43512;Laerm;34054;52.100;5.116;2023-07-20T01:30:16;30.35;28.12;32.98;;
43512;Laerm;34054;52.100;5.116;2023-07-20T01:31:19;30.50;28.16;33.17;;
43512;Laerm;34054;52.100;5.116;2023-07-20T01:31:54;30.34;28.16;33.00;;
43512;Laerm;34054;52.100;5.116;2023-07-20T01:32:26;30.82;28.44;33.65;;
43512;Laerm;34054;52.100;5.116;2023-07-20T01:33:00;30.67;28.29;32.95;;
43512;Laerm;34054;52.100;5.116;2023-07-20T01:33:33;30.67;28.14;32.60;;
43512;Laerm;34054;52.100;5.116;2023-07-20T01:34:07;30.59;28.37;32.84;;
43512;Laerm;34054;52.100;5.116;2023-07-20T01:34:41;30.61;28.16;32.69;;
43512;Laerm;34054;52.100;5.116;2023-07-20T01:35:13;30.64;28.21;32.46;;
43512;Laerm;34054;52.100;5.116;2023-07-20T01:35:52;30.59;28.28;32.39;;
43512;Laerm;34054;52.100;5.116;2023-07-20T01:36:24;30.49;28.05;32.46;;
43512;Laerm;34054;52.100;5.116;2023-07-20T01:36:59;30.58;28.20;32.58;;
43512;Laerm;34054;52.100;5.116;2023-07-20T01:37:33;30.63;28.25;32.57;;
43512;Laerm;34054;52.100;5.116;2023-07-20T01:38:05;30.68;28.31;32.69;;
43512;Laerm;34054;52.100;5.116;2023-07-20T01:38:37;30.64;28.08;32.55;;
43512;Laerm;34054;52.100;5.116;2023-07-20T01:39:10;30.65;28.22;32.58;;
43512;Laerm;34054;52.100;5.116;2023-07-20T01:39:42;30.78;28.27;39.57;;
43512;Laerm;34054;52.100;5.116;2023-07-20T01:40:14;30.68;28.13;32.67;;
43512;Laerm;34054;52.100;5.116;2023-07-20T01:40:46;30.69;28.40;32.73;;
43512;Laerm;34054;52.100;5.116;2023-07-20T01:41:18;30.65;28.11;32.52;;
43512;Laerm;34054;52.100;5.116;2023-07-20T01:41:50;30.69;28.37;32.91;;
43512;Laerm;34054;52.100;5.116;2023-07-20T01:42:21;30.68;28.21;32.64;;
43512;Laerm;34054;52.100;5.116;2023-07-20T01:42:54;30.65;28.29;32.79;;
43512;Laerm;34054;52.100;5.116;2023-07-20T01:43:25;30.72;28.12;32.67;;
43512;Laerm;34054;52.100;5.116;2023-07-20T01:43:57;30.67;28.23;32.86;;
43512;Laerm;34054;52.100;5.116;2023-07-20T01:44:29;30.64;28.43;32.46;;
43512;Laerm;34054;52.100;5.116;2023-07-20T01:45:01;30.70;28.33;32.50;;
43512;Laerm;34054;52.100;5.116;2023-07-20T01:45:32;30.69;28.37;32.46;;
43512;Laerm;34054;52.100;5.116;2023-07-20T01:46:03;30.69;28.24;32.68;;
43512;Laerm;34054;52.100;5.116;2023-07-20T01:46:36;30.61;28.15;32.47;;
43512;Laerm;34054;52.100;5.116;2023-07-20T01:47:08;30.63;28.26;32.60;;
43512;Laerm;34054;52.100;5.116;2023-07-20T01:47:39;30.93;28.29;35.37;;
43512;Laerm;34054;52.100;5.116;2023-07-20T01:48:11;30.73;28.19;32.57;;
43512;Laerm;34054;52.100;5.116;2023-07-20T01:48:42;30.65;27.94;32.48;;
43512;Laerm;34054;52.100;5.116;2023-07-20T01:49:14;30.67;28.08;32.94;;
43512;Laerm;34054;52.100;5.116;2023-07-20T01:49:46;30.68;28.18;32.49;;
43512;Laerm;34054;52.100;5.116;2023-07-20T01:50:17;30.68;28.20;32.41;;
43512;Laerm;34054;52.100;5.116;2023-07-20T01:50:50;30.62;28.31;32.47;;
43512;Laerm;34054;52.100;5.116;2023-07-20T01:51:21;30.67;28.23;32.41;;
43512;Laerm;34054;52.100;5.116;2023-07-20T01:51:52;30.65;28.25;32.40;;
43512;Laerm;34054;52.100;5.116;2023-07-20T01:52:25;30.65;28.34;32.44;;
43512;Laerm;34054;52.100;5.116;2023-07-20T01:52:56;30.71;28.36;32.42;;
43512;Laerm;34054;52.100;5.116;2023-07-20T01:53:28;30.67;28.32;32.73;;
43512;Laerm;34054;52.100;5.116;2023-07-20T01:53:59;30.72;28.28;32.67;;
43512;Laerm;34054;52.100;5.116;2023-07-20T01:54:32;30.64;28.21;32.65;;
43512;Laerm;34054;52.100;5.116;2023-07-20T01:55:03;30.71;28.32;32.74;;
43512;Laerm;34054;52.100;5.116;2023-07-20T01:55:35;31.04;28.30;36.92;;
43512;Laerm;34054;52.100;5.116;2023-07-20T01:56:06;30.72;28.33;32.44;;
43512;Laerm;34054;52.100;5.116;2023-07-20T01:56:38;30.64;28.17;32.69;;
43512;Laerm;34054;52.100;5.116;2023-07-20T01:57:10;30.66;28.22;32.43;;
43512;Laerm;34054;52.100;5.116;2023-07-20T01:57:41;30.69;28.07;32.85;;
43512;Laerm;34054;52.100;5.116;2023-07-20T01:58:12;30.71;28.17;32.91;;
43512;Laerm;34054;52.100;5.116;2023-07-20T01:58:44;30.63;28.24;34.07;;
43512;Laerm;34054;52.100;5.116;2023-07-20T01:59:15;30.69;28.21;32.45;;
43512;Laerm;34054;52.100;5.116;2023-07-20T01:59:47;30.68;28.26;32.54;;
43512;Laerm;34054;52.100;5.116;2023-07-20T02:00:18;30.70;28.26;32.59;;
43512;Laerm;34054;52.100;5.116;2023-07-20T02:00:52;30.60;28.26;32.59;;
43512;Laerm;34054;52.100;5.116;2023-07-20T02:01:23;30.99;28.22;35.06;;
43512;Laerm;34054;52.100;5.116;2023-07-20T02:01:55;30.89;28.53;33.46;;
43512;Laerm;34054;52.100;5.116;2023-07-20T02:02:28;30.68;28.34;32.55;;
43512;Laerm;34054;52.100;5.116;2023-07-20T02:02:59;30.67;28.33;32.81;;
43512;Laerm;34054;52.100;5.116;2023-07-20T02:03:30;30.67;28.29;32.58;;
43512;Laerm;34054;52.100;5.116;2023-07-20T02:04:01;30.66;28.12;32.49;;
43512;Laerm;34054;52.100;5.116;2023-07-20T02:04:34;30.66;28.48;32.68;;
43512;Laerm;34054;52.100;5.116;2023-07-20T02:05:05;30.67;28.24;32.70;;
43512;Laerm;34054;52.100;5.116;2023-07-20T02:05:36;30.67;28.20;32.45;;
43512;Laerm;34054;52.100;5.116;2023-07-20T02:06:08;30.68;28.34;32.48;;
43512;Laerm;34054;52.100;5.116;2023-07-20T02:06:40;30.67;28.33;32.51;;
43512;Laerm;34054;52.100;5.116;2023-07-20T02:07:11;30.67;28.42;32.52;;
43512;Laerm;34054;52.100;5.116;2023-07-20T02:07:42;30.67;28.17;32.68;;
43512;Laerm;34054;52.100;5.116;2023-07-20T02:08:14;30.68;28.16;32.63;;
43512;Laerm;34054;52.100;5.116;2023-07-20T02:08:47;30.63;28.37;32.49;;
43512;Laerm;34054;52.100;5.116;2023-07-20T02:09:18;30.65;28.31;32.59;;
43512;Laerm;34054;52.100;5.116;2023-07-20T02:09:49;30.67;28.34;32.74;;
43512;Laerm;34054;52.100;5.116;2023-07-20T02:10:20;30.65;28.21;32.50;;
43512;Laerm;34054;52.100;5.116;2023-07-20T02:10:52;30.65;27.99;32.49;;
43512;Laerm;34054;52.100;5.116;2023-07-20T02:11:24;30.66;28.36;32.51;;
43512;Laerm;34054;52.100;5.116;2023-07-20T02:11:55;30.68;28.39;32.54;;
43512;Laerm;34054;52.100;5.116;2023-07-20T02:12:26;30.67;27.91;32.51;;
43512;Laerm;34054;52.100;5.116;2023-07-20T02:12:58;30.65;28.32;32.55;;
43512;Laerm;34054;52.100;5.116;2023-07-20T02:13:30;30.67;28.40;32.68;;
43512;Laerm;34054;52.100;5.116;2023-07-20T02:14:01;30.65;28.40;32.80;;
43512;Laerm;34054;52.100;5.116;2023-07-20T02:14:32;30.69;28.14;32.56;;
43512;Laerm;34054;52.100;5.116;2023-07-20T02:15:06;30.60;28.24;32.52;;
43512;Laerm;34054;52.100;5.116;2023-07-20T02:15:37;30.68;28.35;32.62;;
43512;Laerm;34054;52.100;5.116;2023-07-20T02:16:08;30.64;28.03;32.36;;
43512;Laerm;34054;52.100;5.116;2023-07-20T02:16:39;30.65;28.46;32.37;;
43512;Laerm;34054;52.100;5.116;2023-07-20T02:17:13;30.59;28.21;32.49;;
43512;Laerm;34054;52.100;5.116;2023-07-20T02:17:44;30.69;28.15;32.60;;
43512;Laerm;34054;52.100;5.116;2023-07-20T02:18:15;30.65;28.17;32.69;;
43512;Laerm;34054;52.100;5.116;2023-07-20T02:18:47;30.65;27.94;32.59;;
43512;Laerm;34054;52.100;5.116;2023-07-20T02:19:19;30.62;28.28;32.73;;
43512;Laerm;34054;52.100;5.116;2023-07-20T02:19:51;30.65;28.20;32.32;;
43512;Laerm;34054;52.100;5.116;2023-07-20T02:20:23;30.64;28.18;32.66;;
43512;Laerm;34054;52.100;5.116;2023-07-20T02:20:54;30.66;28.40;32.52;;
43512;Laerm;34054;52.100;5.116;2023-07-20T02:21:26;30.66;28.13;32.82;;
43512;Laerm;34054;52.100;5.116;2023-07-20T02:21:57;30.68;28.19;32.48;;
43512;Laerm;34054;52.100;5.116;2023-07-20T02:22:29;30.66;28.28;32.82;;
43512;Laerm;34054;52.100;5.116;2023-07-20T02:23:00;30.67;27.94;32.46;;
43512;Laerm;34054;52.100;5.116;2023-07-20T02:23:31;30.64;28.11;32.46;;
43512;Laerm;34054;52.100;5.116;2023-07-20T02:24:04;30.60;27.97;32.54;;
43512;Laerm;34054;52.100;5.116;2023-07-20T02:24:35;30.66;28.15;32.58;;
43512;Laerm;34054;52.100;5.116;2023-07-20T02:25:07;30.61;28.34;32.40;;
43512;Laerm;34054;52.100;5.116;2023-07-20T02:25:39;30.62;28.13;32.41;;
43512;Laerm;34054;52.100;5.116;2023-07-20T02:26:11;30.63;28.44;32.38;;
43512;Laerm;34054;52.100;5.116;2023-07-20T02:26:42;30.68;28.16;32.66;;
43512;Laerm;34054;52.100;5.116;2023-07-20T02:27:14;30.62;28.11;32.52;;
43512;Laerm;34054;52.100;5.116;2023-07-20T02:27:46;30.65;28.12;32.57;;
43512;Laerm;34054;52.100;5.116;2023-07-20T02:28:18;30.62;28.39;32.60;;
43512;Laerm;34054;52.100;5.116;2023-07-20T02:28:49;30.69;28.09;32.63;;
43512;Laerm;34054;52.100;5.116;2023-07-20T02:29:20;30.67;28.19;32.43;;
43512;Laerm;34054;52.100;5.116;2023-07-20T02:29:51;30.63;27.93;32.57;;
43512;Laerm;34054;52.100;5.116;2023-07-20T02:30:24;30.62;27.96;32.45;;
43512;Laerm;34054;52.100;5.116;2023-07-20T02:30:55;30.67;28.35;32.61;;
43512;Laerm;34054;52.100;5.116;2023-07-20T02:31:26;30.67;28.36;32.89;;
43512;Laerm;34054;52.100;5.116;2023-07-20T02:31:57;30.67;28.27;32.65;;
43512;Laerm;34054;52.100;5.116;2023-07-20T02:32:33;30.54;28.31;32.43;;
43512;Laerm;34054;52.100;5.116;2023-07-20T02:33:05;30.64;28.29;32.67;;
43512;Laerm;34054;52.100;5.116;2023-07-20T02:33:37;30.65;28.18;32.56;;
43512;Laerm;34054;52.100;5.116;2023-07-20T02:34:08;30.67;28.17;32.46;;
43512;Laerm;34054;52.100;5.116;2023-07-20T02:34:40;30.68;28.21;32.63;;
43512;Laerm;34054;52.100;5.116;2023-07-20T02:35:12;31.03;28.19;34.27;;
43512;Laerm;34054;52.100;5.116;2023-07-20T02:35:43;30.69;28.33;32.66;;
43512;Laerm;34054;52.100;5.116;2023-07-20T02:36:15;30.66;28.27;32.84;;
43512;Laerm;34054;52.100;5.116;2023-07-20T02:36:47;30.64;28.10;32.84;;
43512;Laerm;34054;52.100;5.116;2023-07-20T02:37:19;30.73;28.16;33.07;;
43512;Laerm;34054;52.100;5.116;2023-07-20T02:37:50;30.63;28.26;32.47;;
43512;Laerm;34054;52.100;5.116;2023-07-20T02:38:22;30.64;28.03;32.86;;
43512;Laerm;34054;52.100;5.116;2023-07-20T02:38:53;30.70;28.20;32.93;;
43512;Laerm;34054;52.100;5.116;2023-07-20T02:39:26;30.62;28.24;32.75;;
43512;Laerm;34054;52.100;5.116;2023-07-20T02:39:58;30.61;28.37;32.79;;
43512;Laerm;34054;52.100;5.116;2023-07-20T02:40:30;30.69;28.28;32.82;;
43512;Laerm;34054;52.100;5.116;2023-07-20T02:41:01;30.71;28.22;32.75;;
43512;Laerm;34054;52.100;5.116;2023-07-20T02:41:33;30.61;28.26;32.78;;
43512;Laerm;34054;52.100;5.116;2023-07-20T02:42:06;30.66;28.20;32.93;;
43512;Laerm;34054;52.100;5.116;2023-07-20T02:42:37;30.70;28.23;32.52;;
43512;Laerm;34054;52.100;5.116;2023-07-20T02:43:08;30.68;28.17;33.82;;
43512;Laerm;34054;52.100;5.116;2023-07-20T02:43:40;30.68;28.34;32.73;;
43512;Laerm;34054;52.100;5.116;2023-07-20T02:44:13;30.61;28.22;32.45;;
43512;Laerm;34054;52.100;5.116;2023-07-20T02:44:45;30.67;28.28;32.62;;
43512;Laerm;34054;52.100;5.116;2023-07-20T02:45:16;30.71;28.14;32.77;;
43512;Laerm;34054;52.100;5.116;2023-07-20T02:45:50;30.71;28.43;33.00;;
43512;Laerm;34054;52.100;5.116;2023-07-20T02:46:21;30.95;28.58;33.16;;
43512;Laerm;34054;52.100;5.116;2023-07-20T02:46:52;31.11;28.28;37.28;;
43512;Laerm;34054;52.100;5.116;2023-07-20T02:47:23;30.74;28.41;32.68;;
43512;Laerm;34054;52.100;5.116;2023-07-20T02:47:57;30.64;28.36;32.75;;
43512;Laerm;34054;52.100;5.116;2023-07-20T02:48:28;30.72;28.42;32.47;;
43512;Laerm;34054;52.100;5.116;2023-07-20T02:49:00;31.54;28.39;38.72;;
43512;Laerm;34054;52.100;5.116;2023-07-20T02:49:31;31.96;28.31;43.20;;
43512;Laerm;34054;52.100;5.116;2023-07-20T02:50:08;32.19;28.19;43.03;;
43512;Laerm;34054;52.100;5.116;2023-07-20T02:50:40;31.81;28.19;42.54;;
43512;Laerm;34054;52.100;5.116;2023-07-20T02:51:11;32.07;28.09;43.28;;
43512;Laerm;34054;52.100;5.116;2023-07-20T02:51:43;31.58;28.06;41.32;;
43512;Laerm;34054;52.100;5.116;2023-07-20T02:52:15;32.04;28.36;42.22;;
43512;Laerm;34054;52.100;5.116;2023-07-20T02:52:46;32.09;28.32;41.92;;
43512;Laerm;34054;52.100;5.116;2023-07-20T02:53:17;32.58;28.20;42.42;;
43512;Laerm;34054;52.100;5.116;2023-07-20T02:53:49;31.66;28.14;43.81;;
43512;Laerm;34054;52.100;5.116;2023-07-20T02:54:21;31.65;28.53;43.18;;
43512;Laerm;34054;52.100;5.116;2023-07-20T02:54:52;30.67;28.41;32.67;;
43512;Laerm;34054;52.100;5.116;2023-07-20T02:55:23;30.62;28.24;32.34;;
43512;Laerm;34054;52.100;5.116;2023-07-20T02:55:55;30.60;28.21;32.71;;
43512;Laerm;34054;52.100;5.116;2023-07-20T02:56:26;30.75;28.24;32.81;;
43512;Laerm;34054;52.100;5.116;2023-07-20T02:56:58;30.63;28.39;32.82;;
43512;Laerm;34054;52.100;5.116;2023-07-20T02:57:30;30.62;28.10;32.60;;
43512;Laerm;34054;52.100;5.116;2023-07-20T02:58:01;30.65;28.37;32.69;;
43512;Laerm;34054;52.100;5.116;2023-07-20T02:58:33;30.61;28.43;32.87;;
43512;Laerm;34054;52.100;5.116;2023-07-20T02:59:08;30.54;28.32;32.58;;
43512;Laerm;34054;52.100;5.116;2023-07-20T02:59:40;30.81;28.48;32.53;;
43512;Laerm;34054;52.100;5.116;2023-07-20T03:00:12;30.64;28.22;32.85;;
43512;Laerm;34054;52.100;5.116;2023-07-20T03:00:47;30.53;28.19;32.51;;
43512;Laerm;34054;52.100;5.116;2023-07-20T03:01:19;30.60;27.94;32.49;;
43512;Laerm;34054;52.100;5.116;2023-07-20T03:01:50;30.66;28.24;32.47;;
43512;Laerm;34054;52.100;5.116;2023-07-20T03:02:21;30.65;28.48;32.59;;
43512;Laerm;34054;52.100;5.116;2023-07-20T03:02:52;30.64;28.29;32.50;;
43512;Laerm;34054;52.100;5.116;2023-07-20T03:03:27;30.50;28.23;32.60;;
43512;Laerm;34054;52.100;5.116;2023-07-20T03:03:59;30.67;28.33;32.47;;
43512;Laerm;34054;52.100;5.116;2023-07-20T03:04:30;32.39;28.21;43.39;;